sensor_id;sensor_type;location;lat;lon;timestamp;temperature;humidity
30473;DHT22;17263;48.160;11.452;2023-07-13T06:24:33;22.60;99.90
30473;DHT22;17263;48.160;11.452;2023-07-13T06:26:59;22.60;99.90
30473;DHT22;17263;48.160;11.452;2023-07-13T06:29:26;22.70;99.90
30473;DHT22;17263;48.160;11.452;2023-07-13T06:31:52;23.00;99.90
30473;DHT22;17263;48.160;11.452;2023-07-13T06:34:18;23.10;99.90
30473;DHT22;17263;48.160;11.452;2023-07-13T06:36:44;23.00;99.90
30473;DHT22;17263;48.160;11.452;2023-07-13T06:39:10;22.70;99.90
30473;DHT22;17263;48.160;11.452;2023-07-13T06:41:37;22.60;99.90
30473;DHT22;17263;48.160;11.452;2023-07-13T06:44:04;22.30;99.90
30473;DHT22;17263;48.160;11.452;2023-07-13T06:46:30;22.10;99.90
30473;DHT22;17263;48.160;11.452;2023-07-13T06:48:56;21.80;99.90
30473;DHT22;17263;48.160;11.452;2023-07-13T06:51:22;21.50;99.90
30473;DHT22;17263;48.160;11.452;2023-07-13T06:53:48;21.30;99.90
30473;DHT22;17263;48.160;11.452;2023-07-13T06:56:15;21.20;99.90
30473;DHT22;17263;48.160;11.452;2023-07-13T06:58:41;21.10;99.90
30473;DHT22;17263;48.160;11.452;2023-07-13T07:01:08;21.00;99.90
30473;DHT22;17263;48.160;11.452;2023-07-13T07:03:35;20.90;99.90
30473;DHT22;17263;48.160;11.452;2023-07-13T07:06:21;20.90;99.90
30473;DHT22;17263;48.160;11.452;2023-07-13T07:08:51;20.80;99.90
30473;DHT22;17263;48.160;11.452;2023-07-13T07:11:25;20.70;99.90
30473;DHT22;17263;48.160;11.452;2023-07-13T07:13:52;20.60;99.90
30473;DHT22;17263;48.160;11.452;2023-07-13T07:16:19;20.50;99.90
30473;DHT22;17263;48.160;11.452;2023-07-13T07:18:46;20.40;99.90
30473;DHT22;17263;48.160;11.452;2023-07-13T07:21:13;20.30;99.90
30473;DHT22;17263;48.160;11.452;2023-07-13T07:23:39;20.30;99.90
30473;DHT22;17263;48.160;11.452;2023-07-13T07:26:05;20.30;99.90
30473;DHT22;17263;48.160;11.452;2023-07-13T07:28:34;20.40;99.90
30473;DHT22;17263;48.160;11.452;2023-07-13T07:31:00;20.40;99.90
30473;DHT22;17263;48.160;11.452;2023-07-13T07:33:26;20.50;99.90
30473;DHT22;17263;48.160;11.452;2023-07-13T07:35:52;20.50;99.90
30473;DHT22;17263;48.160;11.452;2023-07-13T07:38:19;20.50;99.90
30473;DHT22;17263;48.160;11.452;2023-07-13T07:40:45;20.40;99.90
30473;DHT22;17263;48.160;11.452;2023-07-13T07:43:12;20.40;99.90
30473;DHT22;17263;48.160;11.452;2023-07-13T07:45:39;20.40;99.90
30473;DHT22;17263;48.160;11.452;2023-07-13T07:48:05;20.40;99.90
30473;DHT22;17263;48.160;11.452;2023-07-13T07:50:32;20.40;99.90
30473;DHT22;17263;48.160;11.452;2023-07-13T07:52:58;20.30;99.90
30473;DHT22;17263;48.160;11.452;2023-07-13T07:55:25;20.20;99.90
30473;DHT22;17263;48.160;11.452;2023-07-13T07:57:56;20.20;99.90
30473;DHT22;17263;48.160;11.452;2023-07-13T08:00:22;20.00;99.90
30473;DHT22;17263;48.160;11.452;2023-07-13T08:02:48;20.00;99.90
30473;DHT22;17263;48.160;11.452;2023-07-13T08:05:14;19.90;99.90
30473;DHT22;17263;48.160;11.452;2023-07-13T08:07:40;19.90;99.90
30473;DHT22;17263;48.160;11.452;2023-07-13T08:10:07;19.80;99.90
30473;DHT22;17263;48.160;11.452;2023-07-13T08:12:38;19.80;99.90
30473;DHT22;17263;48.160;11.452;2023-07-13T08:15:05;19.70;99.90
30473;DHT22;17263;48.160;11.452;2023-07-13T08:17:32;19.70;99.90
30473;DHT22;17263;48.160;11.452;2023-07-13T08:19:58;19.60;99.90
30473;DHT22;17263;48.160;11.452;2023-07-13T08:22:24;19.60;99.90
30473;DHT22;17263;48.160;11.452;2023-07-13T08:24:50;19.50;99.90
30473;DHT22;17263;48.160;11.452;2023-07-13T08:27:23;19.40;99.90
30473;DHT22;17263;48.160;11.452;2023-07-13T08:29:49;19.40;99.90
30473;DHT22;17263;48.160;11.452;2023-07-13T08:32:15;19.30;99.90
30473;DHT22;17263;48.160;11.452;2023-07-13T08:34:42;19.30;99.90
30473;DHT22;17263;48.160;11.452;2023-07-13T08:37:08;19.40;99.90
30473;DHT22;17263;48.160;11.452;2023-07-13T08:39:35;19.40;99.90
30473;DHT22;17263;48.160;11.452;2023-07-13T08:42:29;19.50;99.90
30473;DHT22;17263;48.160;11.452;2023-07-13T08:45:21;19.80;99.90
30473;DHT22;17263;48.160;11.452;2023-07-13T08:48:02;20.10;99.90
30473;DHT22;17263;48.160;11.452;2023-07-13T08:50:35;20.40;99.90
30473;DHT22;17263;48.160;11.452;2023-07-13T08:53:05;20.60;99.90
30473;DHT22;17263;48.160;11.452;2023-07-13T08:55:34;20.60;99.90
30473;DHT22;17263;48.160;11.452;2023-07-13T08:58:09;20.60;99.90
30473;DHT22;17263;48.160;11.452;2023-07-13T09:00:56;20.50;99.90
30473;DHT22;17263;48.160;11.452;2023-07-13T09:03:27;20.50;99.90
30473;DHT22;17263;48.160;11.452;2023-07-13T09:05:59;20.30;99.90
30473;DHT22;17263;48.160;11.452;2023-07-13T09:11:42;20.20;99.90
30473;DHT22;17263;48.160;11.452;2023-07-13T09:14:35;20.20;99.90
30473;DHT22;17263;48.160;11.452;2023-07-13T09:17:17;20.20;99.90
30473;DHT22;17263;48.160;11.452;2023-07-13T09:19:46;20.20;99.90
30473;DHT22;17263;48.160;11.452;2023-07-13T09:22:18;20.30;99.90
30473;DHT22;17263;48.160;11.452;2023-07-13T09:24:50;20.30;99.90
30473;DHT22;17263;48.160;11.452;2023-07-13T09:27:22;20.30;99.90
30473;DHT22;17263;48.160;11.452;2023-07-13T09:32:38;20.40;99.90
30473;DHT22;17263;48.160;11.452;2023-07-13T09:35:12;20.40;99.90
30473;DHT22;17263;48.160;11.452;2023-07-13T09:37:40;20.50;99.90
30473;DHT22;17263;48.160;11.452;2023-07-13T09:40:21;20.60;99.90
30473;DHT22;17263;48.160;11.452;2023-07-13T09:42:53;20.60;99.90
30473;DHT22;17263;48.160;11.452;2023-07-13T09:45:30;20.60;99.90
30473;DHT22;17263;48.160;11.452;2023-07-13T09:48:04;20.70;99.90
30473;DHT22;17263;48.160;11.452;2023-07-13T09:50:31;20.90;99.90
30473;DHT22;17263;48.160;11.452;2023-07-13T09:52:57;21.10;99.90
30473;DHT22;17263;48.160;11.452;2023-07-13T09:55:31;21.40;99.90
30473;DHT22;17263;48.160;11.452;2023-07-13T09:58:18;21.50;99.90
30473;DHT22;17263;48.160;11.452;2023-07-13T10:01:03;21.70;99.90
30473;DHT22;17263;48.160;11.452;2023-07-13T10:03:35;21.70;99.90
30473;DHT22;17263;48.160;11.452;2023-07-13T10:06:19;21.70;99.90
30473;DHT22;17263;48.160;11.452;2023-07-13T10:08:49;21.60;99.90
30473;DHT22;17263;48.160;11.452;2023-07-13T10:11:21;21.50;99.90
30473;DHT22;17263;48.160;11.452;2023-07-13T10:14:10;21.60;99.90
30473;DHT22;17263;48.160;11.452;2023-07-13T10:16:37;21.70;99.90
30473;DHT22;17263;48.160;11.452;2023-07-13T10:19:21;22.00;99.90
30473;DHT22;17263;48.160;11.452;2023-07-13T10:21:56;22.60;99.90
30473;DHT22;17263;48.160;11.452;2023-07-13T10:24:27;23.10;99.90
30473;DHT22;17263;48.160;11.452;2023-07-13T10:29:52;23.80;99.90
30473;DHT22;17263;48.160;11.452;2023-07-13T10:32:21;24.00;99.90
30473;DHT22;17263;48.160;11.452;2023-07-13T10:34:50;24.10;99.90
30473;DHT22;17263;48.160;11.452;2023-07-13T10:37:44;24.00;99.90
30473;DHT22;17263;48.160;11.452;2023-07-13T10:43:04;23.80;99.90
30473;DHT22;17263;48.160;11.452;2023-07-13T10:45:34;23.70;99.90
30473;DHT22;17263;48.160;11.452;2023-07-13T10:48:01;23.60;99.90
30473;DHT22;17263;48.160;11.452;2023-07-13T10:50:29;23.40;99.90
30473;DHT22;17263;48.160;11.452;2023-07-13T10:53:16;23.40;99.90
30473;DHT22;17263;48.160;11.452;2023-07-13T11:01:03;23.70;99.90
30473;DHT22;17263;48.160;11.452;2023-07-13T11:03:31;23.60;99.90
30473;DHT22;17263;48.160;11.452;2023-07-13T11:06:17;23.60;99.90
30473;DHT22;17263;48.160;11.452;2023-07-13T11:13:58;23.70;99.90
30473;DHT22;17263;48.160;11.452;2023-07-13T11:16:52;23.70;99.90
30473;DHT22;17263;48.160;11.452;2023-07-13T11:24:56;24.00;99.90
30473;DHT22;17263;48.160;11.452;2023-07-13T11:27:34;24.10;99.90
30473;DHT22;17263;48.160;11.452;2023-07-13T11:33:21;24.00;99.90
30473;DHT22;17263;48.160;11.452;2023-07-13T11:36:05;23.90;99.90
30473;DHT22;17263;48.160;11.452;2023-07-13T11:38:39;23.80;99.90
30473;DHT22;17263;48.160;11.452;2023-07-13T11:41:18;23.70;99.90
30473;DHT22;17263;48.160;11.452;2023-07-13T11:43:48;23.60;99.90
30473;DHT22;17263;48.160;11.452;2023-07-13T11:46:20;23.70;99.90
30473;DHT22;17263;48.160;11.452;2023-07-13T11:48:46;23.70;99.90
30473;DHT22;17263;48.160;11.452;2023-07-13T11:51:23;23.80;99.90
30473;DHT22;17263;48.160;11.452;2023-07-13T11:53:53;23.90;99.90
30473;DHT22;17263;48.160;11.452;2023-07-13T11:56:19;24.10;99.90
30473;DHT22;17263;48.160;11.452;2023-07-13T11:58:50;24.10;99.90
30473;DHT22;17263;48.160;11.452;2023-07-13T12:01:27;24.00;99.90
30473;DHT22;17263;48.160;11.452;2023-07-13T12:04:03;23.90;99.90
30473;DHT22;17263;48.160;11.452;2023-07-13T12:06:32;24.00;99.90
30473;DHT22;17263;48.160;11.452;2023-07-13T12:09:00;23.90;99.90
30473;DHT22;17263;48.160;11.452;2023-07-13T12:11:30;24.10;99.90
30473;DHT22;17263;48.160;11.452;2023-07-13T12:13:56;24.10;99.90
30473;DHT22;17263;48.160;11.452;2023-07-13T12:16:30;24.10;99.90
30473;DHT22;17263;48.160;11.452;2023-07-13T12:19:00;24.20;99.90
30473;DHT22;17263;48.160;11.452;2023-07-13T12:21:32;24.30;99.90
30473;DHT22;17263;48.160;11.452;2023-07-13T12:23:59;24.40;99.90
30473;DHT22;17263;48.160;11.452;2023-07-13T12:26:28;24.60;99.90
30473;DHT22;17263;48.160;11.452;2023-07-13T12:28:55;24.70;99.90
30473;DHT22;17263;48.160;11.452;2023-07-13T12:34:14;24.70;99.90
30473;DHT22;17263;48.160;11.452;2023-07-13T12:36:46;24.60;99.90
30473;DHT22;17263;48.160;11.452;2023-07-13T12:41:50;24.50;99.90
30473;DHT22;17263;48.160;11.452;2023-07-13T12:44:22;24.50;99.90
30473;DHT22;17263;48.160;11.452;2023-07-13T12:47:03;24.60;99.90
30473;DHT22;17263;48.160;11.452;2023-07-13T12:49:32;24.70;99.90
30473;DHT22;17263;48.160;11.452;2023-07-13T12:52:04;24.70;99.90
30473;DHT22;17263;48.160;11.452;2023-07-13T12:54:30;24.80;99.90
30473;DHT22;17263;48.160;11.452;2023-07-13T12:56:58;24.90;99.00
30473;DHT22;17263;48.160;11.452;2023-07-13T12:59:29;24.90;97.90
30473;DHT22;17263;48.160;11.452;2023-07-13T13:01:56;24.80;97.90
30473;DHT22;17263;48.160;11.452;2023-07-13T13:04:22;24.70;98.10
30473;DHT22;17263;48.160;11.452;2023-07-13T13:06:49;24.70;97.20
30473;DHT22;17263;48.160;11.452;2023-07-13T13:09:16;24.50;98.10
30473;DHT22;17263;48.160;11.452;2023-07-13T13:11:44;24.40;97.50
30473;DHT22;17263;48.160;11.452;2023-07-13T13:14:10;24.40;97.90
30473;DHT22;17263;48.160;11.452;2023-07-13T13:16:45;24.50;98.20
30473;DHT22;17263;48.160;11.452;2023-07-13T13:19:24;24.50;97.60
30473;DHT22;17263;48.160;11.452;2023-07-13T13:21:51;24.50;96.90
30473;DHT22;17263;48.160;11.452;2023-07-13T13:24:23;24.50;97.60
30473;DHT22;17263;48.160;11.452;2023-07-13T13:26:51;24.50;96.80
30473;DHT22;17263;48.160;11.452;2023-07-13T13:29:22;24.50;97.10
30473;DHT22;17263;48.160;11.452;2023-07-13T13:31:51;24.50;97.60
30473;DHT22;17263;48.160;11.452;2023-07-13T13:34:18;24.40;97.10
30473;DHT22;17263;48.160;11.452;2023-07-13T13:36:47;24.40;97.80
30473;DHT22;17263;48.160;11.452;2023-07-13T13:39:25;24.40;98.70
30473;DHT22;17263;48.160;11.452;2023-07-13T13:41:52;24.50;98.30
30473;DHT22;17263;48.160;11.452;2023-07-13T13:44:19;24.50;98.50
30473;DHT22;17263;48.160;11.452;2023-07-13T13:46:49;24.50;98.00
30473;DHT22;17263;48.160;11.452;2023-07-13T13:49:18;24.40;98.50
30473;DHT22;17263;48.160;11.452;2023-07-13T13:51:46;24.50;97.50
30473;DHT22;17263;48.160;11.452;2023-07-13T13:54:13;24.50;98.20
30473;DHT22;17263;48.160;11.452;2023-07-13T13:56:45;24.50;97.70
30473;DHT22;17263;48.160;11.452;2023-07-13T13:59:12;24.50;97.10
30473;DHT22;17263;48.160;11.452;2023-07-13T14:01:39;24.50;98.10
30473;DHT22;17263;48.160;11.452;2023-07-13T14:04:06;24.40;97.50
30473;DHT22;17263;48.160;11.452;2023-07-13T14:06:34;24.50;97.60
30473;DHT22;17263;48.160;11.452;2023-07-13T14:09:01;24.50;97.20
30473;DHT22;17263;48.160;11.452;2023-07-13T14:11:30;24.50;96.40
30473;DHT22;17263;48.160;11.452;2023-07-13T14:13:58;24.40;97.10
30473;DHT22;17263;48.160;11.452;2023-07-13T14:16:30;24.40;97.20
30473;DHT22;17263;48.160;11.452;2023-07-13T14:18:58;24.50;98.00
30473;DHT22;17263;48.160;11.452;2023-07-13T14:21:27;24.60;96.50
30473;DHT22;17263;48.160;11.452;2023-07-13T14:23:53;24.70;96.10
30473;DHT22;17263;48.160;11.452;2023-07-13T14:26:22;24.70;95.90
30473;DHT22;17263;48.160;11.452;2023-07-13T14:28:54;24.60;96.50
30473;DHT22;17263;48.160;11.452;2023-07-13T14:31:22;24.50;96.10
30473;DHT22;17263;48.160;11.452;2023-07-13T14:33:48;24.40;95.60
30473;DHT22;17263;48.160;11.452;2023-07-13T14:36:21;24.30;96.90
30473;DHT22;17263;48.160;11.452;2023-07-13T14:38:49;24.20;96.50
30473;DHT22;17263;48.160;11.452;2023-07-13T14:41:15;24.20;96.30
30473;DHT22;17263;48.160;11.452;2023-07-13T14:43:41;24.10;96.10
30473;DHT22;17263;48.160;11.452;2023-07-13T14:46:34;24.10;96.30
30473;DHT22;17263;48.160;11.452;2023-07-13T14:49:04;24.00;96.50
30473;DHT22;17263;48.160;11.452;2023-07-13T14:51:31;23.90;97.30
30473;DHT22;17263;48.160;11.452;2023-07-13T14:54:02;23.90;97.20
30473;DHT22;17263;48.160;11.452;2023-07-13T14:56:29;23.90;97.10
30473;DHT22;17263;48.160;11.452;2023-07-13T14:58:55;23.90;96.70
30473;DHT22;17263;48.160;11.452;2023-07-13T15:01:21;23.90;96.70
30473;DHT22;17263;48.160;11.452;2023-07-13T15:03:50;23.90;96.80
30473;DHT22;17263;48.160;11.452;2023-07-13T15:06:17;23.80;96.90
30473;DHT22;17263;48.160;11.452;2023-07-13T15:08:45;23.80;96.30
30473;DHT22;17263;48.160;11.452;2023-07-13T15:11:12;23.60;95.30
30473;DHT22;17263;48.160;11.452;2023-07-13T15:13:39;23.60;96.10
30473;DHT22;17263;48.160;11.452;2023-07-13T15:16:17;23.60;97.50
30473;DHT22;17263;48.160;11.452;2023-07-13T15:18:45;23.60;97.70
30473;DHT22;17263;48.160;11.452;2023-07-13T15:21:15;23.70;97.40
30473;DHT22;17263;48.160;11.452;2023-07-13T15:23:43;23.70;96.60
30473;DHT22;17263;48.160;11.452;2023-07-13T15:26:14;23.60;96.50
30473;DHT22;17263;48.160;11.452;2023-07-13T15:28:44;23.70;97.70
30473;DHT22;17263;48.160;11.452;2023-07-13T15:31:22;23.80;97.50
30473;DHT22;17263;48.160;11.452;2023-07-13T15:33:50;23.80;97.50
30473;DHT22;17263;48.160;11.452;2023-07-13T15:36:18;23.80;96.30
30473;DHT22;17263;48.160;11.452;2023-07-13T15:38:45;23.80;96.00
30473;DHT22;17263;48.160;11.452;2023-07-13T15:41:21;23.80;96.80
30473;DHT22;17263;48.160;11.452;2023-07-13T15:43:53;23.90;96.60
30473;DHT22;17263;48.160;11.452;2023-07-13T15:46:21;23.80;96.90
30473;DHT22;17263;48.160;11.452;2023-07-13T15:48:49;23.90;97.00
30473;DHT22;17263;48.160;11.452;2023-07-13T15:51:27;23.80;96.20
30473;DHT22;17263;48.160;11.452;2023-07-13T15:54:00;23.70;96.40
30473;DHT22;17263;48.160;11.452;2023-07-13T15:56:29;23.70;96.70
30473;DHT22;17263;48.160;11.452;2023-07-13T15:58:59;23.80;97.40
30473;DHT22;17263;48.160;11.452;2023-07-13T16:01:26;23.80;97.10
30473;DHT22;17263;48.160;11.452;2023-07-13T16:03:52;23.80;97.00
30473;DHT22;17263;48.160;11.452;2023-07-13T16:06:22;23.80;97.20
30473;DHT22;17263;48.160;11.452;2023-07-13T16:08:50;23.70;97.10
30473;DHT22;17263;48.160;11.452;2023-07-13T16:11:24;23.70;96.40
30473;DHT22;17263;48.160;11.452;2023-07-13T16:13:52;23.60;95.90
30473;DHT22;17263;48.160;11.452;2023-07-13T16:16:23;23.60;96.50
30473;DHT22;17263;48.160;11.452;2023-07-13T16:18:53;23.60;96.60
30473;DHT22;17263;48.160;11.452;2023-07-13T16:21:27;23.70;96.60
30473;DHT22;17263;48.160;11.452;2023-07-13T16:23:54;23.80;96.30
30473;DHT22;17263;48.160;11.452;2023-07-13T16:26:26;23.90;96.40
30473;DHT22;17263;48.160;11.452;2023-07-13T16:28:53;23.90;96.30
30473;DHT22;17263;48.160;11.452;2023-07-13T16:31:30;23.80;96.20
30473;DHT22;17263;48.160;11.452;2023-07-13T16:33:57;23.80;95.90
30473;DHT22;17263;48.160;11.452;2023-07-13T16:36:25;23.80;94.70
30473;DHT22;17263;48.160;11.452;2023-07-13T16:38:51;23.70;95.10
30473;DHT22;17263;48.160;11.452;2023-07-13T16:41:17;23.70;95.80
30473;DHT22;17263;48.160;11.452;2023-07-13T16:43:43;23.60;95.90
30473;DHT22;17263;48.160;11.452;2023-07-13T16:46:12;23.60;95.90
30473;DHT22;17263;48.160;11.452;2023-07-13T16:48:41;23.50;96.60
30473;DHT22;17263;48.160;11.452;2023-07-13T16:51:07;23.50;96.90
30473;DHT22;17263;48.160;11.452;2023-07-13T16:53:33;23.40;96.60
30473;DHT22;17263;48.160;11.452;2023-07-13T16:56:01;23.40;96.50
30473;DHT22;17263;48.160;11.452;2023-07-13T16:58:31;23.40;96.30
30473;DHT22;17263;48.160;11.452;2023-07-13T17:00:59;23.30;96.50
30473;DHT22;17263;48.160;11.452;2023-07-13T17:03:27;23.30;96.70
30473;DHT22;17263;48.160;11.452;2023-07-13T17:05:56;23.30;96.90
30473;DHT22;17263;48.160;11.452;2023-07-13T17:08:27;23.20;97.30
30473;DHT22;17263;48.160;11.452;2023-07-13T17:10:59;23.10;97.60
30473;DHT22;17263;48.160;11.452;2023-07-13T17:13:27;23.00;97.70
30473;DHT22;17263;48.160;11.452;2023-07-13T17:15:55;23.00;97.60
30473;DHT22;17263;48.160;11.452;2023-07-13T17:18:27;22.90;97.80
30473;DHT22;17263;48.160;11.452;2023-07-13T17:20:54;22.90;98.10
30473;DHT22;17263;48.160;11.452;2023-07-13T17:23:25;22.80;98.60
30473;DHT22;17263;48.160;11.452;2023-07-13T17:25:52;22.80;98.80
30473;DHT22;17263;48.160;11.452;2023-07-13T17:28:19;22.70;99.10
30473;DHT22;17263;48.160;11.452;2023-07-13T17:30:48;22.60;98.70
30473;DHT22;17263;48.160;11.452;2023-07-13T17:33:37;22.60;98.50
30473;DHT22;17263;48.160;11.452;2023-07-13T17:36:12;22.50;98.50
30473;DHT22;17263;48.160;11.452;2023-07-13T17:38:41;22.40;98.90
30473;DHT22;17263;48.160;11.452;2023-07-13T17:41:10;22.40;99.40
30473;DHT22;17263;48.160;11.452;2023-07-13T17:43:40;22.30;99.50
30473;DHT22;17263;48.160;11.452;2023-07-13T17:46:30;22.30;99.40
30473;DHT22;17263;48.160;11.452;2023-07-13T17:48:56;22.30;99.60
30473;DHT22;17263;48.160;11.452;2023-07-13T17:51:23;22.30;99.90
30473;DHT22;17263;48.160;11.452;2023-07-13T17:53:50;22.20;99.90
30473;DHT22;17263;48.160;11.452;2023-07-13T17:56:17;22.20;99.90
30473;DHT22;17263;48.160;11.452;2023-07-13T17:58:44;22.10;99.90
30473;DHT22;17263;48.160;11.452;2023-07-13T18:01:15;22.10;99.90
30473;DHT22;17263;48.160;11.452;2023-07-13T18:03:43;22.00;99.90
30473;DHT22;17263;48.160;11.452;2023-07-13T18:06:13;22.00;99.90
30473;DHT22;17263;48.160;11.452;2023-07-13T18:08:50;22.00;99.90
30473;DHT22;17263;48.160;11.452;2023-07-13T18:11:16;21.90;99.90
30473;DHT22;17263;48.160;11.452;2023-07-13T18:13:42;21.80;99.90
30473;DHT22;17263;48.160;11.452;2023-07-13T18:16:14;21.80;99.90
30473;DHT22;17263;48.160;11.452;2023-07-13T18:18:41;21.70;99.90
30473;DHT22;17263;48.160;11.452;2023-07-13T18:21:10;21.70;99.90
30473;DHT22;17263;48.160;11.452;2023-07-13T18:23:58;21.60;99.90
30473;DHT22;17263;48.160;11.452;2023-07-13T18:26:26;21.60;99.90
30473;DHT22;17263;48.160;11.452;2023-07-13T18:28:53;21.60;99.90
30473;DHT22;17263;48.160;11.452;2023-07-13T18:31:21;21.60;99.90
30473;DHT22;17263;48.160;11.452;2023-07-13T18:33:50;21.60;99.90
30473;DHT22;17263;48.160;11.452;2023-07-13T18:36:18;21.60;99.90
30473;DHT22;17263;48.160;11.452;2023-07-13T18:38:44;21.50;99.90
30473;DHT22;17263;48.160;11.452;2023-07-13T18:41:12;21.50;99.90
30473;DHT22;17263;48.160;11.452;2023-07-13T18:43:38;21.50;99.90
30473;DHT22;17263;48.160;11.452;2023-07-13T18:46:24;21.50;99.90
30473;DHT22;17263;48.160;11.452;2023-07-13T18:48:51;21.40;99.90
30473;DHT22;17263;48.160;11.452;2023-07-13T18:51:18;21.30;99.90
30473;DHT22;17263;48.160;11.452;2023-07-13T18:53:44;21.30;99.90
30473;DHT22;17263;48.160;11.452;2023-07-13T18:56:10;21.30;99.90
30473;DHT22;17263;48.160;11.452;2023-07-13T18:58:38;21.20;99.90
30473;DHT22;17263;48.160;11.452;2023-07-13T19:01:15;21.20;99.90
30473;DHT22;17263;48.160;11.452;2023-07-13T19:03:43;21.20;99.90
30473;DHT22;17263;48.160;11.452;2023-07-13T19:06:10;21.20;99.90
30473;DHT22;17263;48.160;11.452;2023-07-13T19:08:40;21.10;99.90
30473;DHT22;17263;48.160;11.452;2023-07-13T19:11:15;21.10;99.90
30473;DHT22;17263;48.160;11.452;2023-07-13T19:13:42;21.00;99.90
30473;DHT22;17263;48.160;11.452;2023-07-13T19:16:11;21.00;99.90
30473;DHT22;17263;48.160;11.452;2023-07-13T19:18:38;21.00;99.90
30473;DHT22;17263;48.160;11.452;2023-07-13T19:21:17;20.90;99.90
30473;DHT22;17263;48.160;11.452;2023-07-13T19:23:46;20.90;99.90
30473;DHT22;17263;48.160;11.452;2023-07-13T19:26:38;20.90;99.90
30473;DHT22;17263;48.160;11.452;2023-07-13T19:29:05;20.80;99.90
30473;DHT22;17263;48.160;11.452;2023-07-13T19:31:33;20.70;99.90
30473;DHT22;17263;48.160;11.452;2023-07-13T19:34:22;20.70;99.90
30473;DHT22;17263;48.160;11.452;2023-07-13T19:36:57;20.60;99.90
30473;DHT22;17263;48.160;11.452;2023-07-13T19:39:28;20.60;99.90
30473;DHT22;17263;48.160;11.452;2023-07-13T19:41:56;20.50;99.90
30473;DHT22;17263;48.160;11.452;2023-07-13T19:44:25;20.50;99.90
30473;DHT22;17263;48.160;11.452;2023-07-13T19:46:52;20.40;99.90
30473;DHT22;17263;48.160;11.452;2023-07-13T19:49:19;20.40;99.90
30473;DHT22;17263;48.160;11.452;2023-07-13T19:51:45;20.30;99.90
30473;DHT22;17263;48.160;11.452;2023-07-13T19:54:13;20.30;99.90
30473;DHT22;17263;48.160;11.452;2023-07-13T19:56:40;20.20;99.90
30473;DHT22;17263;48.160;11.452;2023-07-13T19:59:26;20.20;99.90
30473;DHT22;17263;48.160;11.452;2023-07-13T20:01:53;20.20;99.90
30473;DHT22;17263;48.160;11.452;2023-07-13T20:04:20;20.10;99.90
30473;DHT22;17263;48.160;11.452;2023-07-13T20:06:47;20.10;99.90
30473;DHT22;17263;48.160;11.452;2023-07-13T20:09:18;20.10;99.90
30473;DHT22;17263;48.160;11.452;2023-07-13T20:11:45;20.10;99.90
30473;DHT22;17263;48.160;11.452;2023-07-13T20:14:20;20.10;99.90
30473;DHT22;17263;48.160;11.452;2023-07-13T20:16:47;20.10;99.90
30473;DHT22;17263;48.160;11.452;2023-07-13T20:19:15;20.10;99.90
30473;DHT22;17263;48.160;11.452;2023-07-13T20:21:43;20.10;99.90
30473;DHT22;17263;48.160;11.452;2023-07-13T20:24:19;20.10;99.90
30473;DHT22;17263;48.160;11.452;2023-07-13T20:26:47;20.00;99.90
30473;DHT22;17263;48.160;11.452;2023-07-13T20:29:14;20.00;99.90
30473;DHT22;17263;48.160;11.452;2023-07-13T20:31:42;19.90;99.90
30473;DHT22;17263;48.160;11.452;2023-07-13T20:34:24;19.90;99.90
30473;DHT22;17263;48.160;11.452;2023-07-13T20:36:52;19.80;99.90
30473;DHT22;17263;48.160;11.452;2023-07-13T20:39:20;19.70;99.90
30473;DHT22;17263;48.160;11.452;2023-07-13T20:41:47;19.60;99.90
30473;DHT22;17263;48.160;11.452;2023-07-13T20:44:13;19.60;99.90
30473;DHT22;17263;48.160;11.452;2023-07-13T20:46:39;19.60;99.90
30473;DHT22;17263;48.160;11.452;2023-07-13T20:49:07;19.50;99.90
30473;DHT22;17263;48.160;11.452;2023-07-13T20:51:36;19.50;99.90
30473;DHT22;17263;48.160;11.452;2023-07-13T20:54:02;19.40;99.90
30473;DHT22;17263;48.160;11.452;2023-07-13T20:56:28;19.50;99.90
30473;DHT22;17263;48.160;11.452;2023-07-13T20:58:55;19.40;99.90
30473;DHT22;17263;48.160;11.452;2023-07-13T21:03:56;19.40;99.90
30473;DHT22;17263;48.160;11.452;2023-07-13T21:06:22;19.40;99.90
30473;DHT22;17263;48.160;11.452;2023-07-13T21:08:49;19.30;99.90
30473;DHT22;17263;48.160;11.452;2023-07-13T21:11:15;19.30;99.90
30473;DHT22;17263;48.160;11.452;2023-07-13T21:13:41;19.30;99.90
30473;DHT22;17263;48.160;11.452;2023-07-13T21:16:19;19.20;99.90
30473;DHT22;17263;48.160;11.452;2023-07-13T21:18:46;19.20;99.90
30473;DHT22;17263;48.160;11.452;2023-07-13T21:21:16;19.20;99.90
30473;DHT22;17263;48.160;11.452;2023-07-13T21:23:47;19.20;99.90
30473;DHT22;17263;48.160;11.452;2023-07-13T21:26:15;19.20;99.90
30473;DHT22;17263;48.160;11.452;2023-07-13T21:28:45;19.10;99.90
30473;DHT22;17263;48.160;11.452;2023-07-13T21:33:40;19.10;99.90
30473;DHT22;17263;48.160;11.452;2023-07-13T21:36:06;19.10;99.90
30473;DHT22;17263;48.160;11.452;2023-07-13T21:38:35;19.10;99.90
30473;DHT22;17263;48.160;11.452;2023-07-13T21:41:07;19.00;99.90
30473;DHT22;17263;48.160;11.452;2023-07-13T21:43:37;19.00;99.90
30473;DHT22;17263;48.160;11.452;2023-07-13T21:46:03;19.00;99.90
30473;DHT22;17263;48.160;11.452;2023-07-13T21:48:31;18.90;99.90
30473;DHT22;17263;48.160;11.452;2023-07-13T21:50:57;18.90;99.90
30473;DHT22;17263;48.160;11.452;2023-07-13T21:53:27;18.90;99.90
30473;DHT22;17263;48.160;11.452;2023-07-13T21:55:56;18.90;99.90
30473;DHT22;17263;48.160;11.452;2023-07-13T21:58:29;18.90;99.90
30473;DHT22;17263;48.160;11.452;2023-07-13T22:00:56;18.90;99.90
30473;DHT22;17263;48.160;11.452;2023-07-13T22:03:27;18.90;99.90
30473;DHT22;17263;48.160;11.452;2023-07-13T22:05:55;18.90;99.90
30473;DHT22;17263;48.160;11.452;2023-07-13T22:08:30;18.90;99.90
30473;DHT22;17263;48.160;11.452;2023-07-13T22:10:58;19.00;99.90
30473;DHT22;17263;48.160;11.452;2023-07-13T22:13:28;18.90;99.90
30473;DHT22;17263;48.160;11.452;2023-07-13T22:15:54;18.90;99.90
30473;DHT22;17263;48.160;11.452;2023-07-13T22:18:21;18.90;99.90
30473;DHT22;17263;48.160;11.452;2023-07-13T22:20:51;18.90;99.90
30473;DHT22;17263;48.160;11.452;2023-07-13T22:23:22;18.90;99.90
30473;DHT22;17263;48.160;11.452;2023-07-13T22:25:50;18.90;99.90
30473;DHT22;17263;48.160;11.452;2023-07-13T22:28:20;18.90;99.90
30473;DHT22;17263;48.160;11.452;2023-07-13T22:30:50;18.90;99.90
30473;DHT22;17263;48.160;11.452;2023-07-13T22:33:19;18.80;99.90
30473;DHT22;17263;48.160;11.452;2023-07-13T22:35:47;18.80;99.90
30473;DHT22;17263;48.160;11.452;2023-07-13T22:38:19;18.70;99.90